Time;durP1;ratioP1;P1;durP2;ratioP2;P2;SDS_P1;SDS_P2;PMS_P1;PMS_P2;Temp;Humidity;BMP_temperature;BMP_pressure;BME280_temperature;BME280_humidity;BME280_pressure;Samples;Min_cycle;Max_cycle;Signal;HPM_P1;HPM_P2
2023/07/19 00:00:54;;;;;;;4.70;4.10;;;;;;;27.82;54.90;101346.44;107090;1263;25335;-49
2023/07/19 00:03:21;;;;;;;4.80;4.10;;;;;;;27.80;55.07;101348.70;107212;1265;25404;-49
2023/07/19 00:05:48;;;;;;;5.70;3.70;;;;;;;27.79;55.22;101349.50;107108;1258;25335;-49
2023/07/19 00:08:16;;;;;;;4.50;4.20;;;;;;;27.79;55.31;101350.65;107255;1256;25335;-49
2023/07/19 00:10:43;;;;;;;4.40;4.00;;;;;;;27.78;55.02;101350.02;107098;1263;25387;-49
2023/07/19 00:13:12;;;;;;;6.30;4.10;;;;;;;27.76;54.55;101344.80;107299;1256;25492;-49
2023/07/19 00:15:39;;;;;;;4.30;3.90;;;;;;;27.73;54.31;101347.92;107130;1255;25350;-50
2023/07/19 00:18:06;;;;;;;4.40;3.90;;;;;;;27.71;54.43;101352.95;107068;1262;24232;-49
2023/07/19 00:20:33;;;;;;;7.00;4.50;;;;;;;27.64;54.96;101353.64;107191;1263;25558;-49
2023/07/19 00:23:01;;;;;;;7.80;4.50;;;;;;;27.68;54.91;101355.63;107109;1263;25315;-50
2023/07/19 00:25:30;;;;;;;7.90;4.70;;;;;;;27.67;54.80;101358.42;107091;1265;25403;-49
2023/07/19 00:27:57;;;;;;;5.20;4.30;;;;;;;27.56;54.89;101359.86;107156;1262;25388;-50
2023/07/19 00:30:26;;;;;;;5.40;4.20;;;;;;;27.52;55.00;101356.98;107072;1260;25421;-49
2023/07/19 00:32:54;;;;;;;5.40;4.40;;;;;;;27.50;54.71;101352.56;107170;1256;25340;-49
2023/07/19 00:35:21;;;;;;;9.50;4.50;;;;;;;27.62;54.55;101352.27;107186;1256;25321;-49
2023/07/19 00:37:49;;;;;;;5.10;4.40;;;;;;;27.67;54.59;101350.93;107104;1259;25391;-50
2023/07/19 00:40:17;;;;;;;4.90;4.00;;;;;;;27.66;54.42;101348.54;106995;1271;22536;-50
2023/07/19 00:42:44;;;;;;;4.40;4.10;;;;;;;27.62;54.49;101340.63;106875;1268;25482;-49
2023/07/19 00:45:11;;;;;;;5.40;4.10;;;;;;;27.61;54.19;101338.41;107116;1265;25360;-50
2023/07/19 00:47:39;;;;;;;4.50;4.10;;;;;;;27.52;54.44;101340.94;107081;1265;25350;-49
2023/07/19 00:50:07;;;;;;;4.70;4.30;;;;;;;27.50;54.62;101344.48;107065;1267;22545;-50
2023/07/19 00:52:35;;;;;;;5.20;4.40;;;;;;;27.49;54.79;101340.20;107190;1263;25310;-49
2023/07/19 00:55:04;;;;;;;5.80;4.40;;;;;;;27.47;54.90;101341.77;107086;1269;22616;-49
2023/07/19 00:57:33;;;;;;;5.50;4.20;;;;;;;27.45;55.35;101339.44;107147;1262;22642;-50
2023/07/19 01:00:00;;;;;;;4.90;4.30;;;;;;;27.47;55.64;101339.80;106943;1265;25542;-49
2023/07/19 01:02:27;;;;;;;5.40;4.20;;;;;;;27.46;56.09;101338.27;106813;1260;25399;-49
2023/07/19 01:04:54;;;;;;;4.70;4.30;;;;;;;27.51;55.92;101336.29;106978;1268;25484;-49
2023/07/19 01:07:22;;;;;;;6.30;5.00;;;;;;;27.52;56.01;101332.23;106909;1274;25350;-49
2023/07/19 01:09:49;;;;;;;6.70;5.10;;;;;;;27.51;55.93;101334.12;107068;1265;25350;-49
2023/07/19 01:12:17;;;;;;;6.80;5.30;;;;;;;27.49;55.89;101334.98;107086;1257;25450;-49
2023/07/19 01:14:44;;;;;;;5.90;4.70;;;;;;;27.47;55.34;101334.64;106895;1264;25412;-50
2023/07/19 01:17:11;;;;;;;5.90;5.40;;;;;;;27.44;54.92;101335.73;107157;1264;23872;-49
2023/07/19 01:19:38;;;;;;;6.80;6.10;;;;;;;27.43;54.93;101331.39;107141;1256;25437;-49
2023/07/19 01:22:05;;;;;;;10.20;8.50;;;;;;;27.42;54.92;101333.13;106830;1268;23534;-49
2023/07/19 01:24:32;;;;;;;14.30;10.90;;;;;;;27.39;54.95;101329.37;106987;1265;25354;-49
2023/07/19 01:27:03;;;;;;;15.10;13.50;;;;;;;27.37;54.84;101326.34;107115;1263;22530;-49
2023/07/19 01:29:49;;;;;;;17.20;15.30;;;;;;;27.32;54.04;101320.46;106915;1256;25009;-49
2023/07/19 01:32:17;;;;;;;17.80;15.00;;;;;;;27.28;53.85;101317.21;107033;1259;24245;-49
2023/07/19 01:34:44;;;;;;;14.30;12.90;;;;;;;27.27;53.86;101320.00;107057;1262;25334;-49
2023/07/19 01:37:11;;;;;;;13.20;12.00;;;;;;;27.25;53.54;101319.81;106995;1269;22681;-49
2023/07/19 01:39:40;;;;;;;14.10;11.50;;;;;;;27.19;53.75;101317.53;107163;1265;25406;-48
2023/07/19 01:42:08;;;;;;;12.10;10.90;;;;;;;27.06;54.14;101319.98;107082;1269;25339;-49
2023/07/19 01:44:35;;;;;;;16.40;11.20;;;;;;;27.13;53.98;101320.33;107148;1256;25481;-49
2023/07/19 01:47:02;;;;;;;13.70;11.50;;;;;;;27.15;53.70;101319.44;107156;1266;25360;-49
2023/07/19 01:49:29;;;;;;;17.60;11.30;;;;;;;27.11;53.61;101321.67;107096;1265;23161;-49
2023/07/19 01:51:56;;;;;;;12.90;10.40;;;;;;;27.09;53.38;101321.36;107063;1259;25472;-49
2023/07/19 01:54:23;;;;;;;10.50;9.40;;;;;;;27.05;53.30;101319.70;107172;1259;25340;-49
2023/07/19 01:56:50;;;;;;;9.70;8.40;;;;;;;27.01;53.20;101318.39;107109;1265;25427;-50
2023/07/19 01:59:18;;;;;;;9.10;8.20;;;;;;;26.99;53.18;101320.42;106837;1271;25353;-49
2023/07/19 02:01:45;;;;;;;9.70;6.70;;;;;;;26.96;52.89;101327.52;107097;1259;25403;-49
2023/07/19 02:04:12;;;;;;;7.70;7.00;;;;;;;26.93;52.62;101324.05;106920;1265;25385;-49
2023/07/19 02:06:40;;;;;;;7.50;6.40;;;;;;;26.90;52.39;101324.17;107059;1262;25386;-49
2023/07/19 02:09:07;;;;;;;7.30;6.60;;;;;;;26.86;52.14;101330.90;107063;1265;25387;-50
2023/07/19 02:11:35;;;;;;;7.90;7.10;;;;;;;26.83;52.20;101335.56;107012;1267;25399;-49
2023/07/19 02:14:03;;;;;;;7.70;6.80;;;;;;;26.80;52.26;101336.39;106751;1263;22679;-49
2023/07/19 02:16:30;;;;;;;12.90;7.50;;;;;;;26.77;52.32;101341.81;106827;1262;22531;-49
2023/07/19 02:18:57;;;;;;;9.90;7.80;;;;;;;26.72;52.57;101342.68;106793;1268;25379;-49
2023/07/19 02:21:24;;;;;;;9.60;7.20;;;;;;;26.69;52.78;101346.48;106776;1265;22529;-50
2023/07/19 02:23:52;;;;;;;10.40;8.00;;;;;;;26.67;52.92;101350.02;106900;1266;22532;-49
2023/07/19 02:26:20;;;;;;;8.70;7.80;;;;;;;26.66;52.91;101351.35;106614;1258;22530;-49
2023/07/19 02:28:47;;;;;;;9.20;8.20;;;;;;;26.67;52.60;101349.35;106584;1270;25331;-49
2023/07/19 02:31:14;;;;;;;9.90;8.00;;;;;;;26.67;52.44;101349.13;106707;1268;25591;-49
2023/07/19 02:33:41;;;;;;;11.10;8.30;;;;;;;26.66;52.23;101352.59;106506;1278;25367;-49
2023/07/19 02:36:10;;;;;;;10.20;8.50;;;;;;;26.65;52.23;101353.02;106632;1272;25357;-49
2023/07/19 02:38:39;;;;;;;11.00;8.80;;;;;;;26.65;52.19;101355.17;106579;1258;22522;-49
2023/07/19 02:41:10;;;;;;;10.00;7.50;;;;;;;26.65;52.29;101357.33;106438;1268;25460;-50
2023/07/19 02:43:37;;;;;;;8.60;7.70;;;;;;;26.64;52.31;101355.11;106531;1261;25329;-50
2023/07/19 02:46:05;;;;;;;11.30;8.30;;;;;;;26.63;52.48;101360.85;106916;1269;25400;-51
2023/07/19 02:48:33;;;;;;;10.90;8.10;;;;;;;26.62;52.41;101356.83;107168;1266;25332;-51
2023/07/19 02:50:59;;;;;;;10.10;7.50;;;;;;;26.60;52.21;101350.94;106977;1265;22526;-48
2023/07/19 02:53:27;;;;;;;8.70;7.90;;;;;;;26.58;52.11;101345.20;107078;1267;25412;-48
2023/07/19 02:55:55;;;;;;;9.50;7.60;;;;;;;26.59;51.89;101345.54;107177;1265;25482;-48
2023/07/19 02:58:23;;;;;;;9.00;7.60;;;;;;;26.58;51.79;101349.54;107086;1266;25360;-50
2023/07/19 03:00:53;;;;;;;13.60;9.30;;;;;;;26.57;52.01;101354.23;106807;1269;25338;-48
2023/07/19 03:03:21;;;;;;;11.10;9.10;;;;;;;26.55;52.11;101344.93;107196;1270;24484;-48
2023/07/19 03:05:48;;;;;;;16.60;10.30;;;;;;;26.54;52.30;101347.12;106842;1267;22515;-48
2023/07/19 03:08:15;;;;;;;13.20;10.90;;;;;;;26.55;52.40;101347.29;106842;1269;25349;-48
2023/07/19 03:10:43;;;;;;;14.90;10.90;;;;;;;26.54;52.43;101347.20;106870;1273;25409;-48
2023/07/19 03:13:10;;;;;;;12.30;10.50;;;;;;;26.51;52.17;101340.61;107222;1264;25364;-48
2023/07/19 03:15:38;;;;;;;16.30;9.50;;;;;;;26.49;52.16;101334.36;107147;1265;25354;-51
2023/07/19 03:18:05;;;;;;;10.70;9.60;;;;;;;26.47;52.27;101323.70;106966;1267;25409;-51
2023/07/19 03:20:34;;;;;;;12.10;9.30;;;;;;;26.45;51.91;101319.23;106801;1268;24232;-50
2023/07/19 03:23:01;;;;;;;12.30;8.80;;;;;;;26.44;51.81;101314.48;106961;1265;25415;-48
2023/07/19 03:25:29;;;;;;;11.80;8.60;;;;;;;26.45;51.66;101316.06;106894;1265;25383;-48
2023/07/19 03:27:57;;;;;;;9.20;8.10;;;;;;;26.45;51.45;101317.48;106743;1268;22665;-48
2023/07/19 03:30:24;;;;;;;10.90;8.90;;;;;;;26.45;50.94;101321.52;107246;1267;25361;-49
2023/07/19 03:32:52;;;;;;;9.30;7.80;;;;;;;26.47;50.82;101322.11;106984;1267;25393;-49
2023/07/19 03:35:20;;;;;;;11.80;7.70;;;;;;;26.48;50.39;101323.44;107067;1263;25351;-50
2023/07/19 03:37:49;;;;;;;11.10;7.50;;;;;;;26.49;50.35;101332.41;106850;1259;22533;-49
2023/07/19 03:40:16;;;;;;;12.50;7.90;;;;;;;26.51;49.98;101337.97;106330;1265;1003308;-49
2023/07/19 03:42:44;;;;;;;10.40;7.50;;;;;;;26.55;49.56;101337.45;107120;1265;25393;-49
2023/07/19 03:45:11;;;;;;;8.60;7.50;;;;;;;26.62;49.33;101335.28;107030;1265;25506;-49
2023/07/19 03:47:39;;;;;;;8.00;7.20;;;;;;;26.72;49.03;101340.23;106994;1269;25332;-49
2023/07/19 03:50:07;;;;;;;8.00;7.10;;;;;;;26.86;49.04;101347.45;107100;1267;25383;-50
2023/07/19 03:52:35;;;;;;;8.50;7.30;;;;;;;27.08;48.62;101350.64;107025;1256;25398;-50
2023/07/19 03:55:03;;;;;;;9.00;6.60;;;;;;;27.39;48.18;101352.91;107060;1265;25360;-49
2023/07/19 03:57:33;;;;;;;8.80;6.80;;;;;;;27.80;47.11;101343.75;107095;1267;25457;-50
2023/07/19 04:00:01;;;;;;;7.90;7.10;;;;;;;28.21;46.09;101341.45;106847;1258;25363;-50
2023/07/19 04:02:30;;;;;;;7.70;6.40;;;;;;;28.62;44.92;101333.06;107081;1260;22607;-50
2023/07/19 04:04:57;;;;;;;6.80;5.50;;;;;;;28.90;44.28;101331.61;107049;1265;25325;-50
2023/07/19 04:07:26;;;;;;;9.30;6.80;;;;;;;29.08;43.89;101337.91;106865;1253;25427;-49
2023/07/19 04:09:53;;;;;;;6.90;5.90;;;;;;;29.14;43.56;101336.11;106782;1267;23287;-50
2023/07/19 04:12:21;;;;;;;7.40;5.90;;;;;;;29.10;43.21;101344.60;106920;1265;25231;-49
2023/07/19 04:14:57;;;;;;;7.80;6.90;;;;;;;28.98;43.34;101352.35;106735;1262;25315;-50
2023/07/19 04:17:27;;;;;;;7.10;5.60;;;;;;;28.81;43.25;101347.80;107094;1255;24224;-49
2023/07/19 04:19:54;;;;;;;7.40;6.60;;;;;;;28.63;43.05;101345.95;107185;1263;25353;-49
2023/07/19 04:22:21;;;;;;;7.60;6.80;;;;;;;28.45;43.63;101348.75;107185;1260;22549;-50
2023/07/19 04:24:48;;;;;;;8.60;6.70;;;;;;;28.31;44.12;101344.18;106867;1268;25340;-50
2023/07/19 04:27:16;;;;;;;6.20;5.60;;;;;;;28.19;44.32;101349.27;107182;1256;25325;-49
2023/07/19 04:29:43;;;;;;;8.80;6.40;;;;;;;28.09;44.36;101340.73;106982;1266;25350;-50
2023/07/19 04:32:10;;;;;;;7.60;6.30;;;;;;;27.98;44.56;101338.12;106896;1260;25489;-49
2023/07/19 04:34:37;;;;;;;8.70;6.20;;;;;;;27.88;44.72;101342.70;106793;1267;25350;-49
2023/07/19 04:37:04;;;;;;;8.20;6.60;;;;;;;27.79;44.89;101343.10;107048;1261;23168;-49
2023/07/19 04:39:32;;;;;;;7.60;6.10;;;;;;;27.72;45.16;101345.47;106855;1267;25321;-49
2023/07/19 04:41:59;;;;;;;6.30;5.70;;;;;;;27.66;44.93;101353.45;107021;1265;25323;-49
2023/07/19 04:44:26;;;;;;;7.60;5.50;;;;;;;27.62;44.84;101358.30;107091;1267;25481;-49
2023/07/19 04:46:53;;;;;;;7.30;6.10;;;;;;;27.57;45.19;101359.63;107133;1256;23174;-49
2023/07/19 04:49:20;;;;;;;8.40;6.10;;;;;;;27.53;45.69;101363.73;107056;1266;25320;-49
2023/07/19 04:51:47;;;;;;;7.90;5.90;;;;;;;27.49;45.92;101364.58;107100;1256;22607;-49
2023/07/19 04:54:14;;;;;;;6.10;5.50;;;;;;;27.45;45.63;101368.11;106991;1265;25335;-49
2023/07/19 04:56:42;;;;;;;6.80;5.60;;;;;;;27.41;45.22;101371.13;106987;1257;25350;-49
2023/07/19 04:59:09;;;;;;;9.20;6.50;;;;;;;27.37;45.69;101370.86;106995;1266;25321;-49
2023/07/19 05:01:37;;;;;;;8.30;6.10;;;;;;;27.35;46.00;101365.85;107098;1263;25392;-49
2023/07/19 05:04:05;;;;;;;6.40;5.60;;;;;;;27.33;46.08;101368.46;107117;1264;25404;-49
2023/07/19 05:06:33;;;;;;;8.50;5.70;;;;;;;27.33;45.95;101372.21;106911;1269;22528;-49
2023/07/19 05:09:03;;;;;;;6.50;5.70;;;;;;;27.32;45.68;101374.09;107002;1267;25409;-49
2023/07/19 05:11:31;;;;;;;7.30;6.10;;;;;;;27.31;45.82;101373.99;106820;1256;25466;-49
2023/07/19 05:14:03;;;;;;;7.00;5.90;;;;;;;27.33;46.20;101367.64;106834;1266;25482;-49
2023/07/19 05:16:30;;;;;;;7.80;6.30;;;;;;;27.42;46.40;101369.06;107120;1256;23463;-49
2023/07/19 05:18:58;;;;;;;9.00;5.00;;;;;;;27.61;46.17;101367.45;107075;1266;25351;-50
2023/07/19 05:21:25;;;;;;;6.40;4.60;;;;;;;27.86;45.36;101361.28;107071;1266;25345;-49
2023/07/19 05:23:52;;;;;;;6.10;4.60;;;;;;;28.07;43.99;101358.76;106986;1265;25324;-49
2023/07/19 05:26:19;;;;;;;4.30;3.70;;;;;;;28.21;43.33;101358.63;106879;1270;25316;-49
2023/07/19 05:28:49;;;;;;;7.30;4.50;;;;;;;28.29;43.22;101358.29;107048;1265;25485;-49
2023/07/19 05:31:16;;;;;;;11.00;4.90;;;;;;;28.35;43.32;101359.19;106899;1260;25394;-49
2023/07/19 05:33:43;;;;;;;7.10;4.90;;;;;;;28.37;42.78;101360.41;106758;1269;22516;-49
2023/07/19 05:36:11;;;;;;;5.60;4.70;;;;;;;28.36;42.62;101366.92;106809;1269;24258;-49
2023/07/19 05:38:40;;;;;;;6.10;4.50;;;;;;;28.35;42.31;101364.35;106837;1272;25448;-49
2023/07/19 05:41:08;;;;;;;5.40;4.00;;;;;;;28.34;42.21;101359.08;107211;1269;25340;-49
2023/07/19 05:43:35;;;;;;;5.50;4.20;;;;;;;28.35;42.36;101357.36;107158;1265;25330;-50
2023/07/19 05:46:08;;;;;;;7.50;4.40;;;;;;;28.43;42.49;101362.39;107087;1265;24211;-49
2023/07/19 05:48:35;;;;;;;6.00;4.30;;;;;;;28.55;42.45;101359.89;107110;1260;22528;-49
2023/07/19 05:51:06;;;;;;;5.40;4.20;;;;;;;28.66;42.23;101360.36;106902;1274;25412;-49
2023/07/19 05:53:33;;;;;;;5.00;3.90;;;;;;;28.73;42.02;101361.86;107081;1262;25343;-50
2023/07/19 05:56:00;;;;;;;5.90;4.40;;;;;;;28.78;42.21;101368.40;107112;1263;22539;-49
2023/07/19 05:58:30;;;;;;;4.80;4.30;;;;;;;28.83;42.46;101369.88;107129;1267;25353;-49
2023/07/19 06:00:57;;;;;;;4.80;4.40;;;;;;;28.96;42.73;101371.45;107040;1261;25335;-49
2023/07/19 06:03:25;;;;;;;5.50;4.50;;;;;;;29.12;42.40;101376.33;106869;1267;25335;-50
2023/07/19 06:05:52;;;;;;;5.30;3.80;;;;;;;29.23;41.67;101371.55;107112;1265;25333;-49
2023/07/19 06:08:19;;;;;;;5.90;4.40;;;;;;;29.25;41.35;101367.38;106768;1268;25340;-49
2023/07/19 06:10:52;;;;;;;5.00;4.30;;;;;;;29.24;41.41;101366.25;106826;1260;25315;-49
2023/07/19 06:13:20;;;;;;;7.50;4.60;;;;;;;29.22;41.64;101365.34;106811;1260;22640;-49
2023/07/19 06:15:47;;;;;;;7.20;4.50;;;;;;;29.23;42.19;101363.10;107186;1266;25360;-49
2023/07/19 06:18:14;;;;;;;5.30;4.00;;;;;;;29.27;42.09;101363.65;106909;1274;25469;-49
2023/07/19 06:20:41;;;;;;;7.90;4.20;;;;;;;29.28;41.86;101362.46;107068;1260;25343;-49
2023/07/19 06:23:08;;;;;;;5.30;4.10;;;;;;;29.28;41.65;101359.84;107064;1269;25340;-49
2023/07/19 06:25:36;;;;;;;9.20;4.20;;;;;;;29.25;41.56;101364.22;107068;1263;22524;-49
2023/07/19 06:28:03;;;;;;;5.80;4.30;;;;;;;29.22;41.94;101364.83;106925;1270;25353;-50
2023/07/19 06:30:32;;;;;;;4.50;4.10;;;;;;;29.21;41.86;101365.64;106895;1263;25349;-50
2023/07/19 06:32:58;;;;;;;5.30;4.30;;;;;;;29.20;41.48;101369.52;106571;1268;25303;-49
2023/07/19 06:35:26;;;;;;;8.80;4.20;;;;;;;29.18;41.66;101376.49;107150;1257;25293;-48
2023/07/19 06:37:52;;;;;;;4.40;4.00;;;;;;;29.15;41.97;101379.24;107098;1263;25367;-49
2023/07/19 06:40:20;;;;;;;4.50;4.10;;;;;;;29.11;42.08;101375.61;107177;1269;25321;-49
2023/07/19 06:42:48;;;;;;;4.80;4.30;;;;;;;29.07;41.89;101376.70;107086;1266;25408;-50
2023/07/19 06:45:15;;;;;;;4.40;4.00;;;;;;;29.03;42.28;101376.02;107034;1270;25332;-50
2023/07/19 06:47:42;;;;;;;5.20;4.30;;;;;;;29.01;42.40;101371.55;107029;1265;25262;-50
2023/07/19 06:50:10;;;;;;;6.20;4.30;;;;;;;28.99;42.04;101376.73;106809;1268;25332;-50
2023/07/19 06:52:37;;;;;;;6.10;4.30;;;;;;;28.96;42.09;101380.31;107092;1269;25345;-50
2023/07/19 06:55:05;;;;;;;5.60;4.20;;;;;;;28.97;42.55;101381.81;107025;1267;25325;-50
2023/07/19 06:57:33;;;;;;;5.80;4.50;;;;;;;28.97;42.37;101381.62;106845;1254;22997;-49
2023/07/19 07:00:00;;;;;;;4.90;4.10;;;;;;;29.00;42.27;101378.96;107129;1270;25325;-49
2023/07/19 07:02:27;;;;;;;7.00;4.30;;;;;;;29.02;42.15;101379.64;107102;1272;25404;-50
2023/07/19 07:04:54;;;;;;;7.20;4.50;;;;;;;29.02;41.81;101380.17;107204;1269;25378;-50
2023/07/19 07:07:21;;;;;;;4.40;4.00;;;;;;;29.05;41.96;101381.58;106827;1273;23867;-50
2023/07/19 07:09:48;;;;;;;4.80;4.00;;;;;;;29.06;41.67;101382.51;107136;1264;22542;-50
2023/07/19 07:12:16;;;;;;;4.00;3.70;;;;;;;29.09;41.09;101389.63;107268;1271;25325;-50
2023/07/19 07:14:43;;;;;;;4.60;4.20;;;;;;;29.09;40.89;101394.05;107142;1267;25412;-49
2023/07/19 07:17:10;;;;;;;5.90;4.20;;;;;;;29.09;40.85;101396.95;107035;1263;22539;-49
2023/07/19 07:19:37;;;;;;;4.70;4.10;;;;;;;29.09;41.22;101393.72;107136;1261;25597;-49
2023/07/19 07:22:05;;;;;;;4.90;4.50;;;;;;;29.12;41.04;101399.90;106814;1270;25414;-49
2023/07/19 07:24:32;;;;;;;5.00;4.50;;;;;;;29.15;41.06;101399.77;107237;1267;25339;-49
2023/07/19 07:26:59;;;;;;;4.90;4.30;;;;;;;29.15;41.26;101393.66;107113;1258;25485;-50
2023/07/19 07:29:26;;;;;;;4.60;4.20;;;;;;;29.05;41.44;101388.14;107104;1268;25363;-48
2023/07/19 07:31:53;;;;;;;4.80;4.30;;;;;;;29.04;41.65;101385.19;107105;1261;25484;-50
2023/07/19 07:34:20;;;;;;;5.60;4.50;;;;;;;29.06;41.50;101385.41;107121;1267;22540;-49
2023/07/19 07:36:50;;;;;;;5.40;3.90;;;;;;;29.05;41.22;101382.11;107100;1271;25363;-50
2023/07/19 07:39:17;;;;;;;4.80;4.40;;;;;;;29.03;40.98;101383.91;107038;1264;25356;-49
2023/07/19 07:41:45;;;;;;;5.00;4.60;;;;;;;29.00;40.83;101378.20;106996;1262;25338;-50
2023/07/19 07:44:13;;;;;;;4.10;3.80;;;;;;;28.97;40.70;101375.02;107158;1261;25491;-49
2023/07/19 07:46:40;;;;;;;5.30;4.30;;;;;;;28.96;40.84;101377.63;107162;1264;22541;-50
2023/07/19 07:49:08;;;;;;;5.40;4.70;;;;;;;28.95;40.80;101378.13;107100;1267;22565;-49
2023/07/19 07:51:37;;;;;;;4.90;4.10;;;;;;;28.92;40.91;101385.84;106770;1270;25468;-50
2023/07/19 07:54:05;;;;;;;6.20;4.50;;;;;;;28.88;40.87;101385.15;107012;1268;25332;-49
2023/07/19 07:56:32;;;;;;;6.70;4.40;;;;;;;28.80;41.15;101385.72;106934;1267;269249;-49
2023/07/19 07:58:59;;;;;;;4.60;4.20;;;;;;;28.68;41.75;101381.05;107107;1261;25350;-50
2023/07/19 08:01:26;;;;;;;8.70;4.80;;;;;;;28.63;42.28;101378.52;107094;1257;22542;-49
2023/07/19 08:03:53;;;;;;;4.80;4.00;;;;;;;28.61;42.23;101375.83;107081;1261;25369;-50
2023/07/19 08:06:20;;;;;;;6.50;4.20;;;;;;;28.60;42.16;101379.67;106796;1267;25318;-49
2023/07/19 08:08:48;;;;;;;4.60;4.20;;;;;;;28.56;42.14;101380.02;107119;1261;22745;-49
2023/07/19 08:11:15;;;;;;;4.90;4.50;;;;;;;28.51;42.68;101374.13;107021;1253;24247;-49
2023/07/19 08:13:45;;;;;;;4.90;4.30;;;;;;;28.48;43.01;101364.81;106842;1267;25370;-49
2023/07/19 08:16:13;;;;;;;4.70;4.30;;;;;;;28.47;43.33;101360.92;107082;1273;25332;-49
2023/07/19 08:18:40;;;;;;;5.30;4.70;;;;;;;28.51;43.33;101369.87;107051;1251;22579;-49
2023/07/19 08:21:07;;;;;;;4.70;4.30;;;;;;;28.54;43.73;101370.31;107160;1267;25360;-50
2023/07/19 08:23:38;;;;;;;6.00;4.20;;;;;;;28.56;43.62;101370.35;106793;1270;25328;-49
2023/07/19 08:26:05;;;;;;;5.60;4.90;;;;;;;28.57;43.55;101369.02;107192;1269;25399;-50
2023/07/19 08:28:32;;;;;;;5.40;4.80;;;;;;;28.59;43.95;101359.58;107137;1267;25387;-50
2023/07/19 08:30:59;;;;;;;4.70;4.30;;;;;;;28.66;44.30;101357.85;107039;1258;25318;-50
2023/07/19 08:33:28;;;;;;;5.10;4.30;;;;;;;28.84;44.23;101364.48;107132;1257;25322;-50
2023/07/19 08:35:55;;;;;;;5.40;4.70;;;;;;;28.95;44.65;101362.54;107052;1259;25402;-49
2023/07/19 08:38:22;;;;;;;7.30;4.80;;;;;;;29.07;44.55;101366.34;107010;1265;25322;-50
2023/07/19 08:40:53;;;;;;;5.90;4.60;;;;;;;29.17;44.54;101365.46;107097;1264;25468;-50
2023/07/19 08:43:20;;;;;;;5.40;4.90;;;;;;;29.25;44.98;101357.02;107052;1264;25394;-50
2023/07/19 08:45:47;;;;;;;5.90;4.80;;;;;;;29.33;45.33;101354.67;106879;1270;25328;-49
2023/07/19 08:48:14;;;;;;;5.30;4.80;;;;;;;29.43;45.56;101351.98;107036;1267;25388;-50
2023/07/19 08:50:42;;;;;;;6.40;5.00;;;;;;;29.50;45.75;101357.20;106951;1267;25445;-49
2023/07/19 08:53:09;;;;;;;5.60;5.10;;;;;;;29.56;45.85;101358.08;107218;1254;25332;-49
2023/07/19 08:55:36;;;;;;;6.30;4.70;;;;;;;29.61;46.02;101360.36;106841;1267;25474;-49
2023/07/19 08:58:04;;;;;;;5.20;4.70;;;;;;;29.64;46.14;101356.33;107080;1264;25409;-49
2023/07/19 09:00:34;;;;;;;5.60;4.90;;;;;;;29.65;46.68;101349.61;106928;1267;22520;-49
2023/07/19 09:03:01;;;;;;;7.10;4.80;;;;;;;29.64;47.19;101341.25;107139;1262;25360;-49
2023/07/19 09:05:29;;;;;;;6.20;5.20;;;;;;;29.66;47.34;101337.35;106991;1264;25394;-50
2023/07/19 09:08:00;;;;;;;5.70;5.00;;;;;;;29.70;47.61;101332.81;107127;1253;24373;-49
2023/07/19 09:10:27;;;;;;;6.00;5.40;;;;;;;29.75;47.59;101331.45;107060;1261;24078;-49
2023/07/19 09:12:55;;;;;;;5.90;5.30;;;;;;;29.83;47.53;101327.52;107071;1267;25344;-50
2023/07/19 09:15:22;;;;;;;6.00;5.40;;;;;;;29.92;47.46;101332.56;107045;1257;25412;-50
2023/07/19 09:17:50;;;;;;;6.20;4.90;;;;;;;29.99;47.48;101330.15;107013;1265;25349;-50
2023/07/19 09:20:17;;;;;;;6.30;5.20;;;;;;;30.05;47.58;101330.95;107069;1261;25461;-50
2023/07/19 09:22:45;;;;;;;8.60;5.00;;;;;;;30.14;47.25;101327.56;107134;1255;25350;-50
2023/07/19 09:25:12;;;;;;;6.10;5.50;;;;;;;30.22;47.34;101328.11;107019;1257;25321;-49
2023/07/19 09:27:45;;;;;;;5.60;4.90;;;;;;;30.25;47.50;101328.70;106915;1264;25319;-49
2023/07/19 09:30:12;;;;;;;7.50;5.80;;;;;;;30.31;47.47;101324.93;106830;1267;25453;-49
2023/07/19 09:32:40;;;;;;;6.60;5.80;;;;;;;30.31;47.37;101318.29;107093;1257;25464;-50
2023/07/19 09:35:08;;;;;;;6.00;5.50;;;;;;;30.34;47.46;101307.81;107107;1267;25341;-50
2023/07/19 09:37:35;;;;;;;11.00;5.70;;;;;;;30.33;47.70;101305.36;106998;1254;25336;-49
2023/07/19 09:40:04;;;;;;;6.70;5.20;;;;;;;30.35;47.87;101313.28;106836;1255;25340;-48
2023/07/19 09:42:32;;;;;;;5.80;5.20;;;;;;;30.37;47.95;101315.33;107000;1270;22523;-49
2023/07/19 09:45:00;;;;;;;5.60;5.00;;;;;;;30.37;48.17;101305.72;107187;1254;25504;-49
2023/07/19 09:47:27;;;;;;;5.50;4.90;;;;;;;30.41;48.37;101311.44;106895;1267;25516;-49
2023/07/19 09:49:56;;;;;;;6.50;5.10;;;;;;;30.44;48.33;101312.76;106777;1269;25447;-49
2023/07/19 09:52:24;;;;;;;6.90;5.40;;;;;;;30.47;48.50;101312.10;106650;1264;25472;-49
2023/07/19 09:54:53;;;;;;;5.20;4.80;;;;;;;30.49;47.67;101312.90;106891;1270;24247;-49
2023/07/19 09:57:22;;;;;;;5.40;4.90;;;;;;;30.51;47.26;101312.41;107075;1266;25322;-49
2023/07/19 09:59:50;;;;;;;5.40;4.70;;;;;;;30.51;47.40;101311.88;107072;1260;22537;-49
2023/07/19 10:02:17;;;;;;;7.40;5.20;;;;;;;30.48;47.35;101310.13;106860;1265;25412;-49
2023/07/19 10:04:45;;;;;;;4.90;4.50;;;;;;;30.48;47.22;101305.87;106852;1266;25341;-50
2023/07/19 10:07:15;;;;;;;5.70;4.60;;;;;;;30.43;47.55;101302.04;106903;1258;25470;-49
2023/07/19 10:09:43;;;;;;;5.60;5.10;;;;;;;30.45;47.09;101302.45;107118;1257;22527;-49
2023/07/19 10:12:16;;;;;;;6.20;5.60;;;;;;;30.37;47.34;101301.19;106905;1254;24269;-49
2023/07/19 10:14:59;;;;;;;8.20;5.20;;;;;;;30.28;47.54;101298.12;106928;1263;24213;-49
2023/07/19 10:17:27;;;;;;;6.40;5.10;;;;;;;30.18;47.50;101297.45;107269;1254;23230;-49
2023/07/19 10:20:03;;;;;;;6.10;5.10;;;;;;;30.10;48.04;101297.61;107126;1256;25329;-50
2023/07/19 10:23:06;;;;;;;6.60;5.40;;;;;;;30.00;47.51;101296.39;106887;1274;25485;-49
2023/07/19 10:25:38;;;;;;;6.70;5.10;;;;;;;29.91;47.53;101292.77;106720;1271;25373;-49
2023/07/19 10:28:10;;;;;;;5.10;4.60;;;;;;;29.85;47.87;101287.98;106770;1257;25333;-49
2023/07/19 10:30:46;;;;;;;7.80;5.30;;;;;;;29.82;48.64;101284.50;106600;1260;25334;-50
2023/07/19 10:33:19;;;;;;;5.30;4.80;;;;;;;29.75;48.99;101281.73;106882;1260;25346;-50
2023/07/19 10:35:51;;;;;;;7.00;5.30;;;;;;;29.59;49.57;101285.74;106837;1258;24680;-50
2023/07/19 10:38:25;;;;;;;7.30;5.10;;;;;;;29.53;49.99;101281.31;106706;1269;25332;-51
2023/07/19 10:40:59;;;;;;;5.50;5.00;;;;;;;29.49;50.25;101279.55;106820;1270;25359;-50
2023/07/19 10:43:30;;;;;;;5.60;5.00;;;;;;;29.45;50.65;101277.23;106883;1263;25397;-48
2023/07/19 10:46:15;;;;;;;6.80;4.80;;;;;;;29.44;50.73;101276.30;106902;1269;25325;-48
2023/07/19 10:48:42;;;;;;;8.50;4.80;;;;;;;29.44;50.70;101272.91;106654;1262;25398;-48
2023/07/19 10:51:10;;;;;;;8.80;5.50;;;;;;;29.44;50.34;101263.27;106807;1257;25557;-50
2023/07/19 10:53:45;;;;;;;5.70;4.80;;;;;;;29.44;50.80;101257.67;106968;1262;23208;-48
2023/07/19 10:56:13;;;;;;;6.00;5.10;;;;;;;29.44;50.74;101257.20;106711;1259;25328;-51
2023/07/19 10:58:41;;;;;;;5.80;5.20;;;;;;;29.43;50.41;101254.95;106664;1262;25328;-50
2023/07/19 11:01:08;;;;;;;5.40;4.90;;;;;;;29.43;50.91;101250.79;107006;1258;25482;-51
2023/07/19 11:03:35;;;;;;;7.80;5.50;;;;;;;29.46;51.21;101248.20;107034;1257;25349;-50
2023/07/19 11:06:03;;;;;;;5.70;5.30;;;;;;;29.60;51.42;101249.58;107102;1253;25339;-51
2023/07/19 11:08:32;;;;;;;5.00;4.60;;;;;;;29.74;51.02;101244.80;107242;1258;25361;-48
2023/07/19 11:10:58;;;;;;;7.80;5.20;;;;;;;29.83;51.43;101242.73;106870;1259;22525;-50
2023/07/19 11:13:26;;;;;;;5.00;4.60;;;;;;;29.92;50.85;101247.06;107275;1257;25321;-48
2023/07/19 11:15:54;;;;;;;5.30;4.50;;;;;;;30.01;50.67;101246.39;107210;1264;25360;-48
2023/07/19 11:18:35;;;;;;;7.00;5.20;;;;;;;30.09;50.82;101241.98;107140;1263;23868;-48